Time;durP1;ratioP1;P1;durP2;ratioP2;P2;SDS_P1;SDS_P2;PMS_P1;PMS_P2;Temp;Humidity;BMP_temperature;BMP_pressure;BME280_temperature;BME280_humidity;BME280_pressure;Samples;Min_cycle;Max_cycle;Signal;HPM_P1;HPM_P2
2023/08/08 00:01:42;;;;;;;5.83;2.60;;;13.30;99.90;;;12.80;75.75;100524.09;5053926;28;20275;-75
2023/08/08 00:04:15;;;;;;;6.00;2.67;;;13.30;99.90;;;12.72;76.19;100519.63;5053760;28;20308;-75
2023/08/08 00:06:47;;;;;;;7.50;2.60;;;13.30;99.90;;;12.64;77.38;100523.19;5053864;28;20218;-75
2023/08/08 00:09:19;;;;;;;6.63;3.10;;;13.20;99.90;;;12.65;76.76;100519.50;5053499;28;20636;-75
2023/08/08 00:11:51;;;;;;;3.73;2.60;;;13.20;99.90;;;12.61;77.19;100522.72;5053696;28;20273;-75
2023/08/08 00:14:23;;;;;;;4.97;2.63;;;13.20;99.90;;;12.58;77.68;100520.38;5053740;28;20316;-75
2023/08/08 00:16:55;;;;;;;5.63;2.70;;;13.20;99.90;;;12.58;77.50;100510.47;5052976;28;20617;-75
2023/08/08 00:19:28;;;;;;;8.53;3.40;;;13.10;99.90;;;12.57;78.36;100511.50;5053644;28;20191;-75
2023/08/08 00:22:00;;;;;;;6.77;2.90;;;13.10;99.90;;;12.54;78.79;100519.06;5053546;28;20226;-75
2023/08/08 00:24:32;;;;;;;4.70;3.00;;;13.10;99.90;;;12.53;78.69;100514.72;5053269;28;20286;-75
2023/08/08 00:27:04;;;;;;;5.33;3.13;;;13.10;99.90;;;12.57;79.13;100516.03;5053539;28;20276;-75
2023/08/08 00:29:36;;;;;;;4.27;2.60;;;13.10;99.90;;;12.60;79.34;100511.13;5053519;28;20278;-75
2023/08/08 00:32:08;;;;;;;4.70;2.63;;;13.10;99.90;;;12.58;78.66;100523.91;5053341;28;20192;-75
2023/08/08 00:34:42;;;;;;;4.47;2.43;;;13.20;99.90;;;12.58;79.71;100507.81;5053458;28;20194;-75
2023/08/08 00:37:13;;;;;;;6.70;2.70;;;13.10;99.90;;;12.59;79.85;100509.47;5053415;28;20195;-75
2023/08/08 00:39:46;;;;;;;7.20;3.00;;;13.20;99.90;;;12.62;79.68;100506.44;5053078;28;20289;-75
2023/08/08 00:42:17;;;;;;;5.90;2.57;;;13.10;99.90;;;12.60;79.57;100500.38;5052943;28;20619;-75
2023/08/08 00:44:49;;;;;;;7.13;2.90;;;13.20;99.90;;;12.58;79.36;100499.75;5053328;28;20609;-75
2023/08/08 00:47:22;;;;;;;7.93;2.80;;;13.10;99.90;;;12.56;80.60;100493.72;5053295;28;20277;-75
2023/08/08 00:49:55;;;;;;;6.57;2.90;;;13.10;99.90;;;12.56;80.27;100498.25;5053273;28;20190;-75
2023/08/08 00:52:27;;;;;;;4.27;2.63;;;13.10;99.90;;;12.57;80.54;100495.38;5052932;28;20288;-75
2023/08/08 00:55:01;;;;;;;4.60;2.73;;;13.10;99.90;;;12.59;80.46;100487.16;5052912;28;20644;-75
2023/08/08 00:57:34;;;;;;;4.57;2.97;;;13.10;99.90;;;12.58;80.65;100491.69;5052905;28;20190;-75
2023/08/08 01:00:06;;;;;;;5.17;2.70;;;13.20;99.90;;;12.55;80.98;100486.69;5053191;28;20307;-75
2023/08/08 01:02:38;;;;;;;4.03;2.50;;;13.10;99.90;;;12.57;80.95;100478.41;5053107;28;20218;-75
2023/08/08 01:05:12;;;;;;;8.33;2.93;;;13.10;99.90;;;12.59;80.51;100479.09;5053143;28;20194;-75
2023/08/08 01:07:53;;;;;;;5.67;3.20;;;13.20;99.90;;;12.55;81.33;100483.16;5053108;28;20252;-75
2023/08/08 01:10:31;;;;;;;7.03;2.90;;;13.10;99.90;;;12.54;80.84;100474.25;5053091;28;20289;-75
2023/08/08 01:13:10;;;;;;;4.13;2.67;;;13.10;99.90;;;12.54;81.41;100476.94;5052916;28;20272;-75
2023/08/08 01:15:43;;;;;;;3.47;2.43;;;13.10;99.90;;;12.53;81.27;100479.81;5053004;28;20273;-75
2023/08/08 01:18:16;;;;;;;4.13;2.50;;;13.10;99.90;;;12.49;81.53;100487.41;5052677;28;20197;-75
2023/08/08 01:20:53;;;;;;;3.50;2.43;;;13.10;99.90;;;12.51;81.32;100474.63;5053027;28;20194;-75
2023/08/08 01:23:43;;;;;;;5.00;2.73;;;13.10;99.90;;;12.49;82.08;100471.28;5053552;28;20236;-75
2023/08/08 01:26:18;;;;;;;6.57;2.80;;;13.00;99.90;;;12.43;81.56;100466.59;5052974;28;20279;-75
2023/08/08 01:28:53;;;;;;;4.37;2.53;;;13.00;99.90;;;12.44;82.27;100468.28;5053144;28;20194;-75
2023/08/08 01:31:25;;;;;;;3.27;2.73;;;13.00;99.90;;;12.43;82.61;100455.88;5056781;28;20224;-75
2023/08/08 01:33:57;;;;;;;5.10;2.50;;;13.00;99.90;;;12.43;82.01;100461.25;5056579;28;20268;-75
2023/08/08 01:36:39;;;;;;;5.27;2.87;;;13.00;99.90;;;12.43;82.00;100455.88;5056359;28;20698;-75
2023/08/08 01:39:15;;;;;;;6.47;2.97;;;13.00;99.90;;;12.46;81.71;100450.16;5056601;28;20385;-75
2023/08/08 01:41:51;;;;;;;4.73;2.80;;;13.10;99.90;;;12.45;82.67;100448.50;5056246;28;20648;-75
2023/08/08 01:44:25;;;;;;;4.30;2.53;;;13.10;99.90;;;12.46;82.29;100452.84;5056503;28;20244;-75
2023/08/08 01:46:57;;;;;;;4.03;2.90;;;13.10;99.90;;;12.44;82.06;100456.72;5056453;28;20230;-75
2023/08/08 01:49:28;;;;;;;4.27;2.90;;;13.00;99.90;;;12.43;82.53;100450.50;5056456;28;20225;-75
2023/08/08 01:52:02;;;;;;;2.93;2.40;;;13.00;99.90;;;12.43;82.36;100442.44;5056142;28;20226;-75
2023/08/08 01:54:34;;;;;;;4.93;2.77;;;13.00;99.90;;;12.42;82.55;100446.16;5056263;28;20206;-75
2023/08/08 01:57:08;;;;;;;5.60;3.00;;;13.00;99.90;;;12.44;82.55;100446.81;5056307;28;20222;-75
2023/08/08 01:59:40;;;;;;;5.00;3.20;;;13.00;99.90;;;12.42;83.01;100442.66;5056230;28;20241;-75
2023/08/08 02:02:12;;;;;;;3.70;2.73;;;13.00;99.90;;;12.40;82.95;100447.34;5055807;28;20640;-75
2023/08/08 02:04:44;;;;;;;5.40;3.03;;;13.00;99.90;;;12.44;83.42;100435.22;5055859;28;20197;-75
2023/08/08 02:07:16;;;;;;;4.57;2.93;;;13.00;99.90;;;12.37;83.12;100424.38;5056123;28;20225;-75
2023/08/08 02:09:50;;;;;;;5.20;2.87;;;12.90;99.90;;;12.35;83.32;100428.25;5056052;28;20538;-76
2023/08/08 02:12:23;;;;;;;5.00;2.53;;;12.90;99.90;;;12.33;83.49;100416.88;5055947;28;20254;-75
2023/08/08 02:14:55;;;;;;;6.17;3.00;;;12.90;99.90;;;12.32;84.17;100418.72;5055539;28;20679;-75
2023/08/08 02:17:30;;;;;;;5.97;2.80;;;12.90;99.90;;;12.32;83.84;100420.56;5055911;28;20190;-75
2023/08/08 02:20:03;;;;;;;4.40;3.20;;;12.90;99.90;;;12.31;83.93;100414.38;5055797;28;20236;-76
2023/08/08 02:22:35;;;;;;;6.13;3.10;;;12.90;99.90;;;12.31;84.58;100414.38;5055435;28;20738;-75
2023/08/08 02:25:07;;;;;;;6.57;3.40;;;12.90;99.90;;;12.34;84.66;100413.16;5055426;28;20722;-75
2023/08/08 02:27:40;;;;;;;5.50;3.10;;;12.90;99.90;;;12.34;84.33;100413.16;5055709;28;20221;-75
2023/08/08 02:30:14;;;;;;;3.63;3.17;;;12.90;99.90;;;12.36;84.32;100416.53;5055343;28;20217;-75
2023/08/08 02:32:46;;;;;;;6.83;3.30;;;12.90;99.90;;;12.40;84.91;100415.97;5055501;28;20334;-75
2023/08/08 02:35:18;;;;;;;6.80;3.30;;;13.00;99.90;;;12.42;84.07;100422.00;5055509;28;20219;-75
2023/08/08 02:37:50;;;;;;;4.77;3.60;;;13.00;99.90;;;12.41;84.71;100414.94;5055545;28;20253;-75
2023/08/08 02:40:23;;;;;;;5.00;3.97;;;13.00;99.90;;;12.41;85.25;100408.75;5055175;28;20190;-75
2023/08/08 02:42:56;;;;;;;7.00;3.57;;;13.00;99.90;;;12.40;84.69;100413.28;5054956;28;20229;-75
2023/08/08 02:45:28;;;;;;;7.07;3.70;;;13.00;99.90;;;12.40;85.30;100412.44;5055406;28;20218;-75
2023/08/08 02:48:00;;;;;;;7.13;3.23;;;13.10;99.90;;;12.43;85.51;100418.28;5055886;28;20229;-75
2023/08/08 02:50:32;;;;;;;5.30;3.93;;;13.00;99.90;;;12.46;84.78;100412.56;5054913;28;20567;-75
2023/08/08 02:53:04;;;;;;;4.87;3.50;;;13.00;99.90;;;12.47;85.42;100419.59;5054823;28;20324;-75
2023/08/08 02:55:36;;;;;;;6.20;3.47;;;13.10;99.90;;;12.50;84.98;100413.88;5055154;28;20278;-75
2023/08/08 02:58:09;;;;;;;6.10;3.93;;;13.10;99.90;;;12.50;85.38;100418.44;5055702;28;20236;-75
2023/08/08 03:00:41;;;;;;;4.87;3.43;;;13.10;99.90;;;12.49;85.72;100414.06;5055083;28;20198;-76
2023/08/08 03:03:14;;;;;;;8.47;3.60;;;13.10;99.90;;;12.50;85.65;100419.22;5054937;28;20230;-76
2023/08/08 03:05:46;;;;;;;11.40;3.60;;;13.10;99.90;;;12.46;86.48;100407.22;5055013;28;20229;-76
2023/08/08 03:08:18;;;;;;;6.07;3.30;;;13.10;99.90;;;12.47;86.50;100403.50;5054950;28;20274;-76
2023/08/08 03:10:50;;;;;;;6.07;3.40;;;13.00;99.90;;;12.47;86.86;100402.66;5054867;28;20282;-76
2023/08/08 03:13:23;;;;;;;7.80;3.90;;;13.00;99.90;;;12.48;86.50;100412.38;5054675;28;20284;-76
2023/08/08 03:15:56;;;;;;;5.47;3.33;;;13.10;99.90;;;12.48;87.25;100415.06;5054467;28;20201;-76
2023/08/08 03:18:28;;;;;;;4.43;3.80;;;13.10;99.90;;;12.47;86.30;100408.84;5054730;28;20190;-76
2023/08/08 03:21:00;;;;;;;4.97;3.77;;;13.00;99.90;;;12.47;86.99;100400.81;5054724;28;20244;-76
2023/08/08 03:23:33;;;;;;;6.37;3.73;;;13.10;99.90;;;12.49;87.17;100400.63;5054591;28;20234;-76
2023/08/08 03:26:05;;;;;;;5.30;3.50;;;13.10;99.90;;;12.49;87.30;100398.78;5054255;28;20288;-76
2023/08/08 03:28:38;;;;;;;6.63;3.83;;;13.10;99.90;;;12.48;86.85;100399.78;5054546;28;20280;-76
2023/08/08 03:31:10;;;;;;;8.47;3.90;;;13.10;99.90;;;12.47;87.68;100398.13;5054503;28;20622;-76
2023/08/08 03:33:42;;;;;;;7.07;3.40;;;13.10;99.90;;;12.50;87.13;100399.63;5054271;28;20257;-76
2023/08/08 03:36:15;;;;;;;7.33;3.93;;;13.10;99.90;;;12.49;87.13;100395.25;5054373;28;20190;-76
2023/08/08 03:38:47;;;;;;;8.80;4.27;;;13.10;99.90;;;12.48;87.17;100396.28;5054294;28;20285;-76
2023/08/08 03:41:19;;;;;;;4.50;3.60;;;13.10;99.90;;;12.50;87.74;100397.75;5054309;28;20214;-76
2023/08/08 03:43:53;;;;;;;8.23;3.73;;;13.10;99.90;;;12.53;87.72;100396.56;5054162;28;20269;-76
2023/08/08 03:46:24;;;;;;;4.87;3.80;;;13.10;99.90;;;12.55;87.61;100390.00;5054186;28;20196;-76
2023/08/08 03:48:56;;;;;;;6.53;4.13;;;13.10;99.90;;;12.57;87.58;100393.31;5054181;28;20198;-76
2023/08/08 03:51:28;;;;;;;5.57;3.90;;;13.20;99.90;;;12.61;87.32;100388.44;5053400;28;20608;-76
2023/08/08 03:54:00;;;;;;;6.17;3.80;;;13.30;99.90;;;12.64;87.15;100383.53;5053500;28;20234;-76
2023/08/08 03:56:32;;;;;;;9.50;4.00;;;13.20;99.90;;;12.65;86.99;100390.56;5053677;28;20665;-76
2023/08/08 03:59:05;;;;;;;6.23;3.83;;;13.20;99.90;;;12.67;87.00;100379.66;5053696;28;20192;-76
2023/08/08 04:01:38;;;;;;;6.37;4.00;;;13.30;99.90;;;12.69;86.91;100375.78;5053960;28;20281;-76
2023/08/08 04:04:10;;;;;;;5.87;4.10;;;13.30;99.90;;;12.69;87.19;100378.47;5053418;28;20777;-76
2023/08/08 04:06:42;;;;;;;7.37;4.17;;;13.30;99.90;;;12.68;87.59;100379.47;5053508;28;20645;-76
2023/08/08 04:09:13;;;;;;;6.17;4.00;;;13.30;99.90;;;12.68;87.06;100373.25;5053722;28;20289;-72
2023/08/08 04:11:45;;;;;;;8.10;4.07;;;13.30;99.90;;;12.66;86.64;100378.00;5053469;28;20739;-76
2023/08/08 04:14:18;;;;;;;6.50;3.67;;;13.30;99.90;;;12.65;87.57;100376.31;5053610;28;20265;-76
2023/08/08 04:16:50;;;;;;;6.33;3.80;;;13.20;99.90;;;12.66;86.93;100373.47;5053678;28;20198;-76
2023/08/08 04:19:23;;;;;;;6.60;3.60;;;13.20;99.90;;;12.66;87.30;100378.00;5053348;28;20745;-76
2023/08/08 04:21:55;;;;;;;4.97;3.93;;;13.30;99.90;;;12.67;87.13;100377.78;5053511;28;20194;-76
2023/08/08 04:24:27;;;;;;;8.93;3.50;;;13.30;99.90;;;12.65;87.79;100379.84;5053606;28;20196;-76
2023/08/08 04:26:59;;;;;;;8.40;4.13;;;13.30;99.90;;;12.69;86.94;100378.47;5053240;28;20654;-76
2023/08/08 04:29:32;;;;;;;7.17;4.00;;;13.30;99.90;;;12.69;87.64;100377.63;5053241;28;20644;-76
2023/08/08 04:32:04;;;;;;;5.67;3.40;;;13.30;99.90;;;12.70;87.84;100379.31;5053402;28;20226;-76
2023/08/08 04:34:36;;;;;;;6.03;3.67;;;13.30;99.90;;;12.71;87.55;100389.00;5053367;28;20297;-76
2023/08/08 04:37:08;;;;;;;6.23;3.80;;;13.30;99.90;;;12.74;87.48;100377.88;5053431;28;20283;-76
2023/08/08 04:39:40;;;;;;;7.93;3.70;;;13.30;99.90;;;12.75;87.24;100373.34;5053372;28;20213;-76
2023/08/08 04:42:12;;;;;;;6.90;3.93;;;13.30;99.90;;;12.75;86.95;100384.94;5053311;28;20194;-76
2023/08/08 04:44:46;;;;;;;4.90;3.70;;;13.30;99.90;;;12.78;87.22;100378.34;5053038;28;20647;-76
2023/08/08 04:47:17;;;;;;;6.77;3.90;;;13.40;99.90;;;12.77;87.24;100361.44;5053353;28;20194;-76
2023/08/08 04:49:49;;;;;;;4.17;3.53;;;13.40;99.90;;;12.78;86.85;100364.94;5053326;28;20187;-76
2023/08/08 04:52:21;;;;;;;6.80;4.17;;;13.30;99.90;;;12.77;87.17;100366.81;5053134;28;20324;-76
2023/08/08 04:54:53;;;;;;;6.20;3.80;;;13.40;99.90;;;12.79;86.99;100361.22;5052852;28;20767;-76
2023/08/08 04:57:25;;;;;;;6.10;3.67;;;13.40;99.90;;;12.80;87.69;100360.22;5052902;28;20278;-76
2023/08/08 05:00:01;;;;;;;6.30;4.00;;;13.40;99.90;;;12.81;87.51;100353.84;5053161;28;20221;-76
2023/08/08 05:02:33;;;;;;;4.80;3.17;;;13.40;99.90;;;12.82;87.40;100352.81;5053100;28;20664;-76
2023/08/08 05:05:04;;;;;;;6.50;3.90;;;13.40;99.90;;;12.82;87.38;100348.28;5057186;28;20187;-76
2023/08/08 05:07:37;;;;;;;5.90;3.63;;;13.50;99.90;;;12.84;87.41;100348.09;5057783;28;20545;-76
2023/08/08 05:10:11;;;;;;;7.03;3.90;;;13.40;99.90;;;12.85;87.63;100342.53;5057165;28;20194;-76
2023/08/08 05:12:43;;;;;;;5.13;3.90;;;13.40;99.90;;;12.87;87.83;100350.41;5057088;28;20253;-76
2023/08/08 05:15:16;;;;;;;7.60;3.93;;;13.40;99.90;;;12.88;87.66;100352.06;5057023;28;20640;-76
2023/08/08 05:17:48;;;;;;;6.27;3.87;;;13.50;99.90;;;12.88;87.68;100344.00;5057003;28;20225;-76
2023/08/08 05:20:21;;;;;;;7.23;4.13;;;13.50;99.90;;;12.88;87.52;100352.06;5056962;28;20198;-76
2023/08/08 05:22:52;;;;;;;5.73;3.90;;;13.50;99.90;;;12.91;87.72;100354.41;5056902;28;20596;-76
2023/08/08 05:25:24;;;;;;;6.20;4.13;;;13.50;99.90;;;12.91;87.88;100349.84;5056903;28;20277;-76
2023/08/08 05:27:56;;;;;;;6.30;3.53;;;13.50;99.90;;;12.92;87.25;100348.81;5056803;28;20282;-76
2023/08/08 05:30:29;;;;;;;7.63;3.80;;;13.50;99.90;;;12.95;87.32;100339.56;5056824;28;20201;-76
2023/08/08 05:33:01;;;;;;;8.10;3.90;;;13.50;99.90;;;12.96;87.08;100338.53;5057122;28;20226;-76
2023/08/08 05:35:33;;;;;;;6.33;3.67;;;13.50;99.90;;;12.97;87.65;100335.69;5056589;28;20213;-76
2023/08/08 05:38:05;;;;;;;10.13;3.90;;;13.60;99.90;;;13.00;86.93;100339.84;5056683;28;20221;-76
2023/08/08 05:40:39;;;;;;;4.90;3.87;;;13.60;99.90;;;13.01;87.04;100344.22;5056626;28;20277;-76
2023/08/08 05:43:16;;;;;;;6.93;3.90;;;13.60;99.90;;;13.03;86.89;100344.84;5056899;28;20592;-76
2023/08/08 05:45:50;;;;;;;4.93;3.80;;;13.60;99.90;;;13.05;87.38;100346.31;5056242;28;20593;-76
2023/08/08 05:48:22;;;;;;;8.40;3.77;;;13.60;99.90;;;13.08;86.76;100354.00;5056221;28;20640;-76
2023/08/08 05:50:54;;;;;;;6.93;3.63;;;13.70;99.90;;;13.09;86.94;100357.56;5056405;28;20283;-76
2023/08/08 05:53:26;;;;;;;6.57;3.43;;;13.70;99.90;;;13.13;87.32;100353.50;5055851;28;20321;-76
2023/08/08 05:55:58;;;;;;;7.37;3.80;;;13.70;99.90;;;13.16;87.22;100361.19;5056341;28;20214;-76
2023/08/08 05:58:30;;;;;;;6.63;3.60;;;13.80;99.90;;;13.18;86.70;100359.16;5056283;28;20210;-76
2023/08/08 06:01:06;;;;;;;4.67;3.87;;;13.80;99.90;;;13.21;87.26;100372.22;5055879;28;20664;-76
2023/08/08 06:03:38;;;;;;;5.57;3.87;;;13.80;99.90;;;13.23;87.62;100370.19;5055847;28;20226;-76
2023/08/08 06:06:10;;;;;;;7.87;3.60;;;13.80;99.90;;;13.26;86.71;100361.72;5055866;28;20586;-76
2023/08/08 06:08:42;;;;;;;5.63;4.00;;;13.90;99.90;;;13.29;86.95;100361.34;5056057;28;20194;-76
2023/08/08 06:11:14;;;;;;;6.70;4.00;;;13.90;99.90;;;13.32;86.27;100366.34;5056054;28;20198;-76
2023/08/08 06:13:46;;;;;;;5.57;3.80;;;13.90;99.90;;;13.33;86.60;100357.28;5055937;28;20291;-76
2023/08/08 06:16:20;;;;;;;8.93;3.77;;;13.90;99.90;;;13.36;86.83;100364.97;5054939;28;20253;-76
2023/08/08 06:18:52;;;;;;;10.00;4.10;;;14.00;99.90;;;13.41;87.00;100365.25;5055878;28;20280;-76
2023/08/08 06:21:24;;;;;;;6.13;3.73;;;14.00;99.90;;;13.43;86.54;100368.56;5055848;28;20237;-76
2023/08/08 06:23:56;;;;;;;7.10;4.13;;;14.00;99.90;;;13.47;86.33;100369.88;5055755;28;20308;-75
2023/08/08 06:26:28;;;;;;;8.80;4.50;;;14.10;99.90;;;13.52;86.07;100364.78;5055727;28;20277;-75
2023/08/08 06:29:00;;;;;;;5.73;4.07;;;14.10;99.90;;;13.55;85.93;100367.09;5055419;28;20608;-76
2023/08/08 06:31:33;;;;;;;7.57;4.00;;;14.20;99.90;;;13.60;85.73;100361.13;5055697;28;20225;-75
2023/08/08 06:34:05;;;;;;;5.87;4.10;;;14.20;99.90;;;13.62;86.03;100364.47;5055294;28;20715;-75
2023/08/08 06:36:38;;;;;;;6.40;4.20;;;14.20;99.90;;;13.71;85.17;100360.63;5055478;28;20210;-75
2023/08/08 06:39:11;;;;;;;9.40;4.37;;;14.40;99.90;;;13.73;85.93;100363.16;5055783;28;20210;-75
2023/08/08 06:41:43;;;;;;;6.27;4.03;;;14.30;99.90;;;13.81;84.11;100357.63;5055181;28;20641;-75
2023/08/08 06:44:15;;;;;;;5.73;4.27;;;14.40;99.90;;;13.82;84.28;100368.22;5055328;28;20234;-75
2023/08/08 06:46:48;;;;;;;7.63;4.20;;;14.40;99.90;;;13.89;82.86;100368.28;5055057;28;20667;-75
2023/08/08 06:49:20;;;;;;;7.67;4.10;;;14.50;99.90;;;13.94;83.10;100365.88;5055035;28;20186;-75
2023/08/08 06:51:51;;;;;;;7.83;4.13;;;14.50;99.90;;;14.00;83.07;100367.78;5055300;28;20281;-75
2023/08/08 06:54:23;;;;;;;9.30;4.67;;;14.60;99.90;;;14.07;82.17;100364.16;5054895;28;20228;-75
2023/08/08 06:56:56;;;;;;;7.00;4.17;;;14.60;99.90;;;14.08;83.10;100364.97;5055117;28;20681;-76
2023/08/08 06:59:31;;;;;;;12.83;5.00;;;14.70;99.90;;;14.14;83.14;100361.53;5055151;28;20201;-75
2023/08/08 07:02:05;;;;;;;10.40;5.33;;;14.80;99.90;;;14.17;82.55;100358.44;5054725;28;20763;-75
2023/08/08 07:04:38;;;;;;;10.83;4.30;;;14.80;99.90;;;14.23;82.62;100366.56;5055070;28;20255;-75
2023/08/08 07:07:10;;;;;;;11.33;4.30;;;14.90;99.90;;;14.33;81.68;100360.88;5054976;28;20274;-75
2023/08/08 07:09:42;;;;;;;8.17;4.10;;;14.90;99.90;;;14.38;81.13;100357.63;5054988;28;20197;-75
2023/08/08 07:12:15;;;;;;;5.53;3.67;;;15.00;99.90;;;14.45;80.93;100348.56;5054887;28;20640;-75
2023/08/08 07:14:47;;;;;;;6.77;3.80;;;15.10;99.90;;;14.50;80.18;100346.13;5054917;28;20269;-75
2023/08/08 07:17:20;;;;;;;8.03;3.70;;;15.20;99.90;;;14.58;79.79;100351.38;5054735;28;20206;-75
2023/08/08 07:19:52;;;;;;;6.20;3.60;;;15.20;99.90;;;14.66;79.31;100351.22;5054421;28;20233;-75
2023/08/08 07:22:24;;;;;;;4.23;3.47;;;15.30;99.90;;;14.68;79.48;100348.34;5054622;28;20288;-75
2023/08/08 07:24:55;;;;;;;5.53;3.43;;;15.30;99.90;;;14.72;77.98;100336.13;5054694;28;20622;-76
2023/08/08 07:27:28;;;;;;;4.97;2.97;;;15.30;99.90;;;14.73;77.12;100341.31;5053567;28;20198;-76
2023/08/08 07:30:01;;;;;;;7.03;3.00;;;15.30;99.90;;;14.66;77.49;100345.00;5054490;28;20245;-76
2023/08/08 07:32:34;;;;;;;3.90;2.53;;;15.30;99.90;;;14.69;74.75;100340.03;5054487;28;20226;-76
2023/08/08 07:35:08;;;;;;;5.93;2.90;;;15.30;99.90;;;14.78;75.44;100337.22;5054465;28;20248;-75
2023/08/08 07:37:40;;;;;;;5.63;2.60;;;15.30;99.90;;;14.77;75.85;100349.00;5054034;28;20577;-76
2023/08/08 07:40:21;;;;;;;6.50;3.03;;;15.40;99.90;;;14.80;74.91;100335.13;5054410;28;20258;-76
2023/08/08 07:42:53;;;;;;;5.60;2.80;;;15.40;99.90;;;14.82;74.01;100330.41;5053918;28;20230;-76
2023/08/08 07:45:25;;;;;;;6.00;2.70;;;15.40;99.90;;;14.96;73.13;100332.16;5053885;28;20297;-76
2023/08/08 07:48:05;;;;;;;4.70;2.67;;;15.50;99.90;;;15.08;73.10;100322.44;5091558;27;20552;-75
2023/08/08 07:50:37;;;;;;;3.93;2.47;;;15.60;99.90;;;15.17;72.94;100330.16;5070486;28;20552;-75
2023/08/08 07:53:09;;;;;;;6.40;2.60;;;15.80;99.90;;;15.19;74.08;100329.97;5070756;28;20283;-76
2023/08/08 07:55:41;;;;;;;6.03;2.50;;;15.80;99.90;;;15.31;72.93;100317.56;5070868;28;20288;-76
2023/08/08 07:58:13;;;;;;;5.70;2.10;;;15.90;99.90;;;15.31;69.92;100336.47;5070910;28;20189;-76
2023/08/08 08:00:45;;;;;;;5.37;2.53;;;16.00;99.90;;;15.42;68.78;100325.09;5070326;28;20229;-76
2023/08/08 08:03:19;;;;;;;5.33;2.10;;;16.00;99.90;;;15.52;69.41;100320.19;5070615;28;20233;-76
2023/08/08 08:05:51;;;;;;;8.10;2.33;;;16.10;99.90;;;15.69;69.72;100324.19;5070577;28;20537;-76
2023/08/08 08:08:24;;;;;;;6.80;2.70;;;16.30;99.90;;;15.78;68.69;100327.53;5070588;28;20272;-76
2023/08/08 08:10:56;;;;;;;5.47;2.33;;;16.40;99.90;;;15.78;66.23;100303.25;5070518;28;20281;-76
2023/08/08 08:13:28;;;;;;;9.43;2.93;;;16.40;99.90;;;15.76;67.99;100326.06;5070351;28;20268;-76
2023/08/08 08:16:00;;;;;;;4.20;2.17;;;16.40;99.90;;;15.71;68.98;100319.44;5070386;28;20233;-76
2023/08/08 08:18:33;;;;;;;9.03;2.57;;;16.30;99.90;;;15.80;66.88;100330.84;5070338;28;20190;-76
2023/08/08 08:21:05;;;;;;;6.50;2.00;;;16.40;99.90;;;15.86;65.96;100332.72;5070337;28;20200;-77
2023/08/08 08:23:37;;;;;;;8.63;2.50;;;16.40;99.90;;;15.87;67.21;100310.13;5070165;28;20234;-76
2023/08/08 08:26:09;;;;;;;8.10;2.30;;;16.50;99.90;;;15.86;67.67;100316.53;5070136;28;20228;-75
2023/08/08 08:28:41;;;;;;;6.80;2.57;;;16.40;99.90;;;15.87;68.69;100312.81;5070060;28;20278;-76
2023/08/08 08:31:13;;;;;;;5.60;2.07;;;16.40;99.90;;;16.01;67.94;100313.66;5069866;28;20638;-76
2023/08/08 08:33:46;;;;;;;4.60;2.33;;;16.60;99.90;;;16.02;68.18;100309.94;5070124;28;20308;-76
2023/08/08 08:36:18;;;;;;;5.30;2.37;;;16.60;99.90;;;16.24;66.38;100306.00;5069639;28;20226;-76
2023/08/08 08:38:50;;;;;;;5.27;2.30;;;16.80;99.90;;;16.28;65.66;100296.44;5069702;28;20732;-76
2023/08/08 08:41:28;;;;;;;4.47;2.30;;;16.90;99.90;;;16.21;64.41;100298.31;5069722;28;20557;-76
2023/08/08 08:44:00;;;;;;;3.63;2.30;;;16.80;99.90;;;16.27;64.75;100289.38;5069417;28;20252;-77
2023/08/08 08:46:36;;;;;;;5.80;2.13;;;16.80;99.90;;;16.32;62.48;100284.19;5069448;28;20265;-77
2023/08/08 08:49:13;;;;;;;4.40;2.10;;;16.90;99.90;;;16.30;64.75;100291.66;5069330;28;20695;-76
2023/08/08 08:51:45;;;;;;;4.90;2.30;;;16.80;99.90;;;16.38;62.10;100283.34;5069757;28;20272;-76
2023/08/08 08:54:17;;;;;;;5.27;2.17;;;16.90;99.90;;;16.36;63.06;100290.00;5069200;28;20723;-76
2023/08/08 08:56:50;;;;;;;6.47;2.10;;;16.90;99.90;;;16.46;62.81;100283.13;5069535;28;20192;-76
2023/08/08 08:59:22;;;;;;;6.97;2.13;;;17.00;99.90;;;16.47;64.66;100283.97;5056780;28;20225;-76
2023/08/08 09:01:54;;;;;;;4.93;2.10;;;17.10;99.90;;;16.52;63.66;100268.78;5056212;28;20273;-75
2023/08/08 09:04:30;;;;;;;4.70;2.10;;;17.10;99.90;;;16.52;61.95;100281.47;5056241;28;20609;-75
2023/08/08 09:07:02;;;;;;;4.17;2.10;;;17.10;99.90;;;16.49;60.89;100279.19;5056064;28;20217;-75
2023/08/08 09:09:37;;;;;;;6.43;2.43;;;17.00;99.60;;;16.50;61.48;100287.09;5055981;28;20201;-74
2023/08/08 09:12:11;;;;;;;4.10;2.03;;;17.10;99.90;;;16.42;62.67;100281.88;5055622;28;20643;-74
2023/08/08 09:14:44;;;;;;;3.53;2.30;;;17.00;99.90;;;16.38;63.44;100294.16;5055907;28;20190;-74
2023/08/08 09:17:17;;;;;;;8.17;2.20;;;16.90;99.90;;;16.37;63.25;100278.97;5055640;28;20694;-76
2023/08/08 09:19:50;;;;;;;3.63;1.90;;;16.90;99.90;;;16.31;63.05;100277.09;5055924;28;20221;-75
2023/08/08 09:22:23;;;;;;;7.33;2.20;;;16.80;99.90;;;16.27;62.36;100275.84;5055859;28;20227;-75
2023/08/08 09:24:55;;;;;;;3.20;1.87;;;16.80;99.90;;;16.27;64.27;100281.25;5055798;28;20205;-75
2023/08/08 09:27:29;;;;;;;5.87;2.30;;;16.80;99.90;;;16.23;65.91;100286.25;5055509;28;20305;-75
2023/08/08 09:30:02;;;;;;;5.77;2.17;;;16.80;99.90;;;16.19;66.19;100281.50;5055805;28;20280;-75
2023/08/08 09:32:34;;;;;;;5.67;2.23;;;16.70;99.90;;;16.36;67.71;100269.22;5055844;28;20317;-75
2023/08/08 09:35:11;;;;;;;4.73;2.73;;;16.80;99.90;;;16.61;68.25;100280.25;5055895;28;20194;-75
2023/08/08 09:37:43;;;;;;;8.17;2.80;;;17.10;99.90;;;16.77;66.88;100281.66;5055486;28;20232;-75
2023/08/08 09:40:15;;;;;;;4.57;3.20;;;17.30;99.90;;;16.70;65.98;100298.72;5055490;28;20187;-75
2023/08/08 09:42:48;;;;;;;5.07;2.77;;;17.30;99.90;;;16.64;67.76;100288.75;5055358;28;20230;-75
2023/08/08 09:45:22;;;;;;;4.70;2.73;;;17.20;99.90;;;16.54;67.20;100287.50;5055072;28;20186;-75
2023/08/08 09:47:56;;;;;;;5.07;2.30;;;17.00;99.90;;;16.46;67.07;100287.72;5054869;28;20269;-75
2023/08/08 09:50:32;;;;;;;5.83;2.37;;;17.00;99.90;;;16.28;66.45;100288.34;5055263;28;20264;-75
2023/08/08 09:53:05;;;;;;;6.27;2.80;;;16.80;99.90;;;16.29;67.94;100298.13;5054884;28;20720;-75
2023/08/08 09:55:39;;;;;;;7.67;3.10;;;16.80;99.90;;;16.28;68.72;100296.44;5055147;28;20217;-75
2023/08/08 09:58:12;;;;;;;7.37;2.70;;;16.80;99.90;;;16.29;68.75;100298.13;5055141;28;20221;-75
2023/08/08 10:00:44;;;;;;;5.70;2.60;;;16.80;99.90;;;16.28;67.83;100298.31;5055102;28;20222;-75
2023/08/08 10:03:16;;;;;;;7.90;2.50;;;16.80;99.90;;;16.30;68.62;100291.66;5054983;28;20230;-75
2023/08/08 10:05:50;;;;;;;5.83;2.40;;;16.80;99.90;;;16.30;68.62;100283.53;5054960;28;20190;-75
2023/08/08 10:08:23;;;;;;;7.13;2.73;;;16.80;99.90;;;16.30;67.56;100280.84;5054526;28;20579;-75
2023/08/08 10:10:56;;;;;;;5.30;2.67;;;16.80;99.90;;;16.28;68.46;100291.03;5053966;28;20285;-75
2023/08/08 10:13:29;;;;;;;6.20;3.03;;;16.70;99.90;;;16.18;72.03;100282.53;5054757;28;20313;-74
2023/08/08 10:16:08;;;;;;;5.03;2.73;;;16.70;99.90;;;16.05;72.23;100286.06;5054705;28;20195;-74
2023/08/08 10:18:40;;;;;;;7.23;2.60;;;16.50;99.90;;;16.05;73.50;100294.16;5054736;28;20264;-75
2023/08/08 10:21:14;;;;;;;7.23;3.30;;;16.50;99.90;;;16.05;75.70;100296.03;5054633;28;20277;-75
2023/08/08 10:23:46;;;;;;;11.33;3.63;;;16.40;99.90;;;15.92;77.95;100309.50;5054531;28;20233;-74
2023/08/08 10:26:24;;;;;;;7.77;3.80;;;16.30;99.90;;;15.83;80.03;100297.22;5054617;28;20562;-74
2023/08/08 10:29:01;;;;;;;12.13;3.90;;;16.20;99.90;;;15.75;81.18;100298.28;5054474;28;20293;-74
2023/08/08 10:31:38;;;;;;;6.57;3.73;;;16.10;99.90;;;15.66;82.95;100289.50;5054175;28;20644;-74
2023/08/08 10:34:10;;;;;;;7.13;3.67;;;16.00;99.90;;;15.55;81.83;100289.25;5054026;28;20607;-74
2023/08/08 10:36:52;;;;;;;8.00;3.67;;;15.90;99.90;;;15.64;82.94;100286.19;5054069;28;20652;-74